createdAt,value
2018-03-26T00:01:30.340Z,31.30
2018-03-26T00:03:57.785Z,29.92
2018-03-26T00:06:25.230Z,31.05
2018-03-26T00:08:53.878Z,31.45
2018-03-26T00:11:21.308Z,32.72
2018-03-26T00:13:49.519Z,32.67
2018-03-26T00:16:17.726Z,31.80
2018-03-26T00:18:45.165Z,30.45
2018-03-26T00:21:12.604Z,33.45
2018-03-26T00:23:40.128Z,31.35
2018-03-26T00:26:08.392Z,31.98
2018-03-26T00:28:35.956Z,30.27
2018-03-26T00:31:03.406Z,30.62
2018-03-26T00:33:30.868Z,31.00
2018-03-26T00:35:58.404Z,30.92
2018-03-26T00:38:25.853Z,31.37
2018-03-26T00:40:53.352Z,31.55
2018-03-26T00:43:20.788Z,32.05
2018-03-26T00:45:48.248Z,31.50
2018-03-26T00:48:15.733Z,32.17
2018-03-26T00:50:43.942Z,30.35
2018-03-26T00:53:11.372Z,30.98
2018-03-26T00:55:38.929Z,30.55
2018-03-26T00:58:06.364Z,30.75
2018-03-26T01:00:33.820Z,32.55
2018-03-26T01:03:01.308Z,31.90
2018-03-26T01:05:28.793Z,31.55
2018-03-26T01:07:57.218Z,30.40
2018-03-26T01:10:24.665Z,32.95
2018-03-26T01:12:52.518Z,33.28
2018-03-26T01:15:19.957Z,32.78
2018-03-26T01:17:47.413Z,29.10
2018-03-26T01:20:15.688Z,29.00
2018-03-26T01:22:43.162Z,30.15
2018-03-26T01:25:10.609Z,32.03
2018-03-26T01:27:38.224Z,32.05
2018-03-26T01:30:06.448Z,31.90
2018-03-26T01:32:33.950Z,32.15
2018-03-26T01:35:01.394Z,31.58
2018-03-26T01:37:28.852Z,34.00
2018-03-26T01:39:56.308Z,35.10
2018-03-26T01:42:23.769Z,33.05
2018-03-26T01:44:51.223Z,33.80
2018-03-26T01:47:18.770Z,33.80
2018-03-26T01:49:46.205Z,33.22
2018-03-26T01:52:13.834Z,33.65
2018-03-26T01:54:41.286Z,33.47
2018-03-26T01:57:09.498Z,35.25
2018-03-26T01:59:46.833Z,34.03
2018-03-26T02:02:14.300Z,33.38
2018-03-26T02:04:42.530Z,34.13
2018-03-26T02:07:10.081Z,34.10
2018-03-26T02:09:37.516Z,34.65
2018-03-26T02:12:04.961Z,34.95
2018-03-26T02:14:33.496Z,34.55
2018-03-26T02:17:00.944Z,34.50
2018-03-26T02:19:28.382Z,35.38
2018-03-26T02:21:55.972Z,34.33
2018-03-26T02:24:23.424Z,34.10
2018-03-26T02:26:51.032Z,34.47
2018-03-26T02:29:19.281Z,34.13
2018-03-26T02:31:46.729Z,33.75
2018-03-26T02:34:14.195Z,34.15
2018-03-26T02:36:41.858Z,33.90
2018-03-26T02:39:09.302Z,33.53
2018-03-26T02:41:36.751Z,35.13
2018-03-26T02:44:04.229Z,33.55
2018-03-26T02:46:31.676Z,33.85
2018-03-26T02:48:59.141Z,36.08
2018-03-26T02:51:26.575Z,33.80
2018-03-26T02:53:54.125Z,34.42
2018-03-26T02:59:12.326Z,35.10
2018-03-26T03:01:39.778Z,35.38
2018-03-26T03:04:12.483Z,34.47
2018-03-26T03:06:39.913Z,35.95
2018-03-26T03:09:07.348Z,35.92
2018-03-26T03:11:34.916Z,33.38
2018-03-26T03:14:02.357Z,35.25
2018-03-26T03:16:29.803Z,35.10
2018-03-26T03:18:58.116Z,33.80
2018-03-26T03:21:25.759Z,35.25
2018-03-26T03:23:53.191Z,35.55
2018-03-26T03:26:20.640Z,33.80
2018-03-26T03:28:48.928Z,37.10
2018-03-26T03:31:16.415Z,35.85
2018-03-26T03:33:43.856Z,36.33
2018-03-26T03:36:11.317Z,34.95
2018-03-26T03:38:38.788Z,37.47
2018-03-26T03:41:06.231Z,36.35
2018-03-26T03:43:34.121Z,35.10
2018-03-26T03:46:01.576Z,36.42
2018-03-26T03:48:29.029Z,35.58
2018-03-26T03:50:56.519Z,36.50
2018-03-26T03:53:23.949Z,36.22
2018-03-26T03:55:51.437Z,36.40
2018-03-26T03:58:18.868Z,37.38
2018-03-26T04:00:46.633Z,38.55
2018-03-26T04:03:14.082Z,39.42
2018-03-26T04:05:41.525Z,38.00
2018-03-26T04:08:09.006Z,40.75
2018-03-26T04:10:36.460Z,40.12
2018-03-26T04:13:03.904Z,39.38
2018-03-26T04:15:31.441Z,41.42
2018-03-26T04:17:58.912Z,41.50
2018-03-26T04:20:26.352Z,41.78
2018-03-26T04:22:53.919Z,40.85
2018-03-26T04:25:26.353Z,41.05
2018-03-26T04:27:53.893Z,41.45
2018-03-26T04:30:21.345Z,40.15
2018-03-26T04:32:48.800Z,41.13
2018-03-26T04:35:16.270Z,42.60
2018-03-26T04:37:45.704Z,41.75
2018-03-26T04:40:14.044Z,41.17
2018-03-26T04:42:41.579Z,40.35
2018-03-26T04:45:09.013Z,39.38
2018-03-26T04:47:36.500Z,40.40
2018-03-26T04:50:03.939Z,44.17
2018-03-26T04:52:46.157Z,42.28
2018-03-26T04:55:13.625Z,43.33
2018-03-26T04:57:41.240Z,45.55
2018-03-26T05:00:09.454Z,46.35
2018-03-26T05:02:36.991Z,45.65
2018-03-26T05:05:04.433Z,45.38
2018-03-26T05:07:32.648Z,47.95
2018-03-26T05:10:02.005Z,44.38
2018-03-26T05:12:30.217Z,46.25
2018-03-26T05:14:57.716Z,46.65
2018-03-26T05:17:25.156Z,45.40
2018-03-26T05:19:56.415Z,46.25
2018-03-26T05:22:23.856Z,45.80
2018-03-26T05:24:51.340Z,46.03
2018-03-26T05:27:34.657Z,46.55
2018-03-26T05:30:02.118Z,46.15
2018-03-26T05:32:29.569Z,44.38
2018-03-26T05:35:00.843Z,47.00
2018-03-26T05:37:28.277Z,44.08
2018-03-26T05:39:55.730Z,43.47
2018-03-26T05:42:23.217Z,43.90
2018-03-26T05:44:51.432Z,44.60
2018-03-26T05:47:18.878Z,44.42
2018-03-26T05:49:46.505Z,42.67
2018-03-26T05:52:13.999Z,40.85
2018-03-26T05:54:41.405Z,41.22
2018-03-26T05:57:08.882Z,38.13
2018-03-26T05:59:37.114Z,39.53
2018-03-26T06:02:04.608Z,36.58
2018-03-26T06:04:32.229Z,38.00
2018-03-26T06:06:59.676Z,38.05
2018-03-26T06:09:27.130Z,42.35
2018-03-26T06:11:54.789Z,45.75
2018-03-26T06:14:22.248Z,53.80
2018-03-26T06:17:01.654Z,72.95
2018-03-26T06:19:29.869Z,61.75
2018-03-26T06:21:57.441Z,94.60
2018-03-26T06:24:24.884Z,102.72
2018-03-26T06:26:52.341Z,73.37
2018-03-26T06:29:20.148Z,53.05
2018-03-26T06:31:47.596Z,37.78
2018-03-26T06:34:15.041Z,37.17
2018-03-26T06:36:44.074Z,75.53
2018-03-26T06:39:15.873Z,35.92
2018-03-26T06:41:43.766Z,35.20
2018-03-26T06:44:11.260Z,35.30
2018-03-26T06:46:38.667Z,41.13
2018-03-26T06:49:06.144Z,39.30
2018-03-26T06:51:33.629Z,33.80
2018-03-26T06:54:01.092Z,33.35
2018-03-26T06:56:29.349Z,35.88
2018-03-26T06:58:56.884Z,36.65
2018-03-26T07:01:24.325Z,32.78
2018-03-26T07:03:51.865Z,33.40
2018-03-26T07:06:19.361Z,41.25
2018-03-26T07:08:46.837Z,37.60
2018-03-26T07:11:14.284Z,38.80
2018-03-26T07:13:41.760Z,34.47
2018-03-26T07:16:09.398Z,33.55
2018-03-26T07:18:36.881Z,32.25
2018-03-26T07:21:04.333Z,34.63
2018-03-26T07:23:31.972Z,31.98
2018-03-26T07:25:59.448Z,30.25
2018-03-26T07:28:26.893Z,30.65
2018-03-26T07:30:55.196Z,30.73
2018-03-26T07:33:22.648Z,31.87
2018-03-26T07:35:50.144Z,29.95
2018-03-26T07:38:17.593Z,28.70
2018-03-26T07:40:45.065Z,29.00
2018-03-26T07:43:12.514Z,29.52
2018-03-26T07:45:40.154Z,29.02
2018-03-26T07:48:08.372Z,29.90
2018-03-26T07:50:35.817Z,30.85
2018-03-26T08:01:55.422Z,32.83
2018-03-26T08:04:23.752Z,33.88
2018-03-26T08:06:51.218Z,34.50
2018-03-26T08:09:18.676Z,31.83
2018-03-26T08:11:46.117Z,33.20
2018-03-26T08:14:13.572Z,32.45
2018-03-26T08:16:41.086Z,31.77
2018-03-26T08:19:08.587Z,32.03
2018-03-26T08:21:36.029Z,30.62
2018-03-26T08:24:16.513Z,31.87
2018-03-26T08:26:43.974Z,32.38
2018-03-26T08:29:11.453Z,31.20
2018-03-26T08:31:39.127Z,30.80
2018-03-26T08:34:06.561Z,29.77
2018-03-26T08:36:34.973Z,27.62
2018-03-26T08:39:02.422Z,28.17
2018-03-26T08:41:29.975Z,28.27
2018-03-26T08:43:57.444Z,25.27
2018-03-26T08:46:25.033Z,22.98
2018-03-26T08:48:53.243Z,22.98
2018-03-26T08:51:20.686Z,21.75
2018-03-26T08:53:48.253Z,20.30
2018-03-26T08:56:15.754Z,19.45
2018-03-26T08:58:43.149Z,18.60
2018-03-26T09:01:27.388Z,20.23
2018-03-26T09:03:55.592Z,16.70
2018-03-26T09:06:23.045Z,12.80
2018-03-26T09:08:50.840Z,12.15
2018-03-26T09:11:18.302Z,9.60
2018-03-26T09:13:45.738Z,9.05
2018-03-26T09:16:13.218Z,6.82
2018-03-26T09:18:40.648Z,8.20
2018-03-26T09:21:08.142Z,7.43
2018-03-26T09:23:35.579Z,6.55
2018-03-26T09:26:03.065Z,6.05
2018-03-26T09:28:30.804Z,5.62
2018-03-26T09:30:58.249Z,6.05
2018-03-26T09:33:26.079Z,5.80
2018-03-26T09:35:54.315Z,6.10
2018-03-26T09:38:21.964Z,5.62
2018-03-26T09:40:49.408Z,6.40
2018-03-26T09:43:16.887Z,6.07
2018-03-26T09:45:45.301Z,4.95
2018-03-26T09:48:13.504Z,6.37
2018-03-26T09:50:41.404Z,6.30
2018-03-26T09:53:08.854Z,6.95
2018-03-26T09:55:36.410Z,6.60
2018-03-26T09:58:03.901Z,6.20
2018-03-26T10:00:37.073Z,6.90
2018-03-26T10:03:04.536Z,6.93
2018-03-26T10:05:31.980Z,7.62
2018-03-26T10:07:59.585Z,8.05
2018-03-26T10:10:30.597Z,8.20
2018-03-26T10:12:58.036Z,8.63
2018-03-26T10:15:25.496Z,8.15
2018-03-26T10:17:52.990Z,7.85
2018-03-26T10:20:20.447Z,7.30
2018-03-26T10:22:47.888Z,7.50
2018-03-26T10:25:15.402Z,6.93
2018-03-26T10:27:43.592Z,4.60
2018-03-26T10:30:11.069Z,6.32
2018-03-26T10:32:38.502Z,7.30
2018-03-26T10:35:05.940Z,5.78
2018-03-26T10:37:33.483Z,6.55
2018-03-26T10:40:01.693Z,7.00
2018-03-26T10:42:30.020Z,5.40
2018-03-26T10:44:57.610Z,4.85
2018-03-26T10:47:25.043Z,3.80
2018-03-26T10:49:52.510Z,5.70
2018-03-26T10:52:20.716Z,5.20
2018-03-26T10:54:48.219Z,4.75
2018-03-26T10:57:15.669Z,4.85
2018-03-26T10:59:43.146Z,4.68
2018-03-26T11:02:10.592Z,5.25
2018-03-26T11:04:38.060Z,7.35
2018-03-26T11:07:05.509Z,8.20
2018-03-26T11:09:33.062Z,7.50
2018-03-26T11:12:00.506Z,8.32
2018-03-26T11:14:27.980Z,8.40
2018-03-26T11:16:55.437Z,8.70
2018-03-26T11:19:22.887Z,9.23
2018-03-26T11:21:50.352Z,9.40
2018-03-26T11:24:17.798Z,9.77
2018-03-26T11:26:45.333Z,10.00
2018-03-26T11:29:12.978Z,11.90
2018-03-26T11:31:40.443Z,10.52
2018-03-26T11:34:07.905Z,10.38
2018-03-26T11:36:35.382Z,12.07
2018-03-26T11:39:03.598Z,11.70
2018-03-26T11:41:31.155Z,11.55
2018-03-26T11:43:58.607Z,9.52
2018-03-26T11:46:26.473Z,9.50
2018-03-26T11:48:53.912Z,10.02
2018-03-26T11:51:21.505Z,9.20
2018-03-26T11:53:50.899Z,7.68
2018-03-26T11:56:19.292Z,6.95
2018-03-26T11:58:47.940Z,7.20
2018-03-26T12:01:15.426Z,7.00
2018-03-26T12:03:42.992Z,5.28
2018-03-26T12:06:10.576Z,4.68
2018-03-26T12:08:38.028Z,5.75
2018-03-26T12:11:06.234Z,5.50
2018-03-26T12:13:34.108Z,4.57
2018-03-26T12:16:01.552Z,5.55
2018-03-26T12:18:28.984Z,5.32
2018-03-26T12:20:57.239Z,5.80
2018-03-26T12:23:36.580Z,6.70
2018-03-26T12:26:05.041Z,6.95
2018-03-26T12:28:44.388Z,6.20
2018-03-26T12:31:11.844Z,6.40
2018-03-26T12:33:51.247Z,6.80
2018-03-26T12:36:18.747Z,5.97
2018-03-26T12:39:03.719Z,5.65
2018-03-26T12:41:31.259Z,5.32
2018-03-26T12:43:58.706Z,5.65
2018-03-26T12:46:38.626Z,5.20
2018-03-26T12:49:06.919Z,5.60
2018-03-26T12:51:57.944Z,5.45
2018-03-26T12:54:25.447Z,8.52
2018-03-26T12:57:05.716Z,8.68
2018-03-26T12:59:33.197Z,10.95
2018-03-26T13:02:12.665Z,10.98
2018-03-26T13:04:40.189Z,11.32
2018-03-26T13:07:07.678Z,11.05
2018-03-26T13:09:35.194Z,9.93
2018-03-26T13:12:03.029Z,10.30
2018-03-26T13:14:31.305Z,10.48
2018-03-26T13:16:58.780Z,10.70
2018-03-26T13:19:44.717Z,9.50
2018-03-26T13:22:12.158Z,9.23
2018-03-26T13:24:39.642Z,10.15
2018-03-26T13:27:07.615Z,9.35
2018-03-26T13:29:35.304Z,7.95
2018-03-26T13:32:03.528Z,7.72
2018-03-26T13:34:31.121Z,7.45
2018-03-26T13:36:58.612Z,8.40
2018-03-26T13:39:26.387Z,8.93
2018-03-26T13:41:53.918Z,9.10
2018-03-26T13:44:21.641Z,9.52
2018-03-26T13:47:03.957Z,7.53
2018-03-26T13:49:31.636Z,4.75
2018-03-26T13:51:59.080Z,5.05
2018-03-26T13:57:18.342Z,5.45
2018-03-26T13:59:45.929Z,6.37
2018-03-26T14:02:13.365Z,5.70
2018-03-26T14:04:40.829Z,6.25
2018-03-26T14:07:08.332Z,6.20
2018-03-26T14:09:48.861Z,6.07
2018-03-26T14:12:28.181Z,5.40
2018-03-26T14:15:08.389Z,5.80
2018-03-26T14:17:49.215Z,5.65
2018-03-26T14:20:16.885Z,6.80
2018-03-26T14:22:45.326Z,6.40
2018-03-26T14:25:12.891Z,6.12
2018-03-26T14:27:40.610Z,7.05
2018-03-26T14:30:10.706Z,3.97
2018-03-26T14:32:38.170Z,3.60
2018-03-26T14:35:30.686Z,5.00
2018-03-26T14:37:59.294Z,4.80
2018-03-26T14:40:29.121Z,5.00
2018-03-26T14:42:57.001Z,5.50
2018-03-26T14:45:25.440Z,5.12
2018-03-26T14:51:01.820Z,3.70
2018-03-26T14:53:31.270Z,3.42
2018-03-26T14:56:22.241Z,3.15
2018-03-26T15:01:40.701Z,2.75
2018-03-26T15:04:09.945Z,4.10
2018-03-26T15:26:19.077Z,6.03
2018-03-26T15:28:46.929Z,5.35
2018-03-26T15:31:14.405Z,5.87
2018-03-26T15:33:41.886Z,5.30
2018-03-26T15:36:09.534Z,5.32
2018-03-26T15:38:37.047Z,5.80
2018-03-26T15:41:04.554Z,5.32
2018-03-26T15:43:32.037Z,6.07
2018-03-26T15:45:59.537Z,6.43
2018-03-26T15:48:27.326Z,7.70
2018-03-26T15:50:54.780Z,6.10
2018-03-26T15:53:22.338Z,7.35
2018-03-26T15:55:49.837Z,6.25
2018-03-26T15:58:26.244Z,6.10
2018-03-26T16:00:53.710Z,7.50
2018-03-26T16:03:26.052Z,7.20
2018-03-26T16:05:54.286Z,7.55
2018-03-26T16:11:33.393Z,6.87
2018-03-26T16:14:00.870Z,7.37
2018-03-26T16:16:28.328Z,6.47
2018-03-26T16:18:55.960Z,6.78
2018-03-26T16:21:34.229Z,5.85
2018-03-26T16:24:01.696Z,6.20
2018-03-26T16:26:29.225Z,6.30
2018-03-26T16:28:56.892Z,5.55
2018-03-26T16:31:24.574Z,5.05
2018-03-26T16:33:52.111Z,5.30
2018-03-26T16:36:19.759Z,4.70
2018-03-26T16:38:47.201Z,4.90
2018-03-26T16:41:26.434Z,5.05
2018-03-26T16:43:54.905Z,7.68
2018-03-26T16:46:23.877Z,4.87
2018-03-26T16:48:51.304Z,4.18
2018-03-26T16:51:18.742Z,5.25
2018-03-26T16:53:48.339Z,21.73
2018-03-26T16:56:15.788Z,27.67
2018-03-26T16:58:43.228Z,7.68
2018-03-26T17:01:11.570Z,15.75
2018-03-26T17:03:39.020Z,14.68
2018-03-26T17:06:06.521Z,11.02
2018-03-26T17:08:34.714Z,7.22
2018-03-26T17:11:02.444Z,6.50
2018-03-26T17:13:30.593Z,2.85
2018-03-26T17:16:09.036Z,2.72
2018-03-26T17:18:36.473Z,3.05
2018-03-26T17:21:06.392Z,2.92
2018-03-26T17:23:33.833Z,3.00
2018-03-26T17:26:01.269Z,3.40
2018-03-26T17:28:28.785Z,3.70
2018-03-26T17:30:56.557Z,3.50
2018-03-26T17:33:24.777Z,4.30
2018-03-26T17:35:52.294Z,3.87
2018-03-26T17:38:20.549Z,3.47
2018-03-26T17:40:47.980Z,4.22
2018-03-26T17:43:15.438Z,4.50
2018-03-26T17:45:42.885Z,4.18
2018-03-26T17:48:10.341Z,6.00
2018-03-26T17:50:37.810Z,11.35
2018-03-26T17:53:05.316Z,7.18
2018-03-26T17:55:33.547Z,4.12
2018-03-26T17:58:01.025Z,3.67
2018-03-26T18:00:28.484Z,3.40
2018-03-26T18:02:55.938Z,3.05
2018-03-26T18:05:27.333Z,3.30
2018-03-26T18:07:55.024Z,3.55
2018-03-26T18:10:22.528Z,3.72
2018-03-26T18:12:49.892Z,4.00
2018-03-26T18:15:18.137Z,4.03
2018-03-26T18:18:00.421Z,3.58
2018-03-26T18:20:27.877Z,4.20
2018-03-26T18:22:56.580Z,4.18
2018-03-26T18:25:24.018Z,3.65
2018-03-26T18:27:51.450Z,3.92
2018-03-26T18:30:18.912Z,3.87
2018-03-26T18:32:46.685Z,4.20
2018-03-26T18:35:14.288Z,4.03
2018-03-26T18:37:41.748Z,4.15
2018-03-26T18:40:09.273Z,4.80
2018-03-26T18:42:36.728Z,5.80
2018-03-26T18:45:04.238Z,4.53
2018-03-26T18:47:31.680Z,12.37
2018-03-26T18:49:59.125Z,19.95
2018-03-26T18:52:26.621Z,20.00
2018-03-26T18:54:55.805Z,12.25
2018-03-26T18:57:23.271Z,8.25
2018-03-26T18:59:51.541Z,7.45
2018-03-26T19:02:35.893Z,7.30
2018-03-26T19:05:03.347Z,7.80
2018-03-26T19:07:30.786Z,8.25
2018-03-26T19:09:58.243Z,11.20
2018-03-26T19:12:26.236Z,22.20
2018-03-26T19:26:26.585Z,13.15
2018-03-26T19:28:54.028Z,12.60
2018-03-26T19:31:22.424Z,10.73
2018-03-26T19:33:49.897Z,10.18
2018-03-26T19:36:18.156Z,9.45
2018-03-26T19:38:45.594Z,9.35
2018-03-26T19:41:13.031Z,8.45
2018-03-26T19:43:40.562Z,10.10
2018-03-26T19:46:08.137Z,9.60
2018-03-26T19:48:35.581Z,35.50
2018-03-26T19:51:03.047Z,20.23
2018-03-26T19:53:47.508Z,14.15
2018-03-26T19:56:16.234Z,14.52
2018-03-26T19:58:43.686Z,12.65
2018-03-26T20:01:11.182Z,12.10
2018-03-26T20:03:39.393Z,11.45
2018-03-26T20:06:06.872Z,10.90
2018-03-26T20:08:34.309Z,10.40
2018-03-26T20:11:01.770Z,10.52
2018-03-26T20:13:31.816Z,11.50
2018-03-26T20:15:59.318Z,12.30
2018-03-26T20:18:41.277Z,16.83
2018-03-26T20:21:08.731Z,30.50
2018-03-26T20:23:39.169Z,19.25
2018-03-26T20:26:06.653Z,13.23
2018-03-26T20:28:35.185Z,11.60
2018-03-26T20:31:02.633Z,13.15
2018-03-26T20:33:31.492Z,12.98
2018-03-26T20:35:58.933Z,13.52
2018-03-26T20:38:27.175Z,11.23
2018-03-26T20:40:55.834Z,10.48
2018-03-26T20:43:23.269Z,9.77
2018-03-26T20:45:55.607Z,9.02
2018-03-26T20:48:23.139Z,7.47
2018-03-26T20:50:50.585Z,7.60
2018-03-26T20:53:18.045Z,9.55
2018-03-26T20:55:45.560Z,9.57
2018-03-26T20:58:13.071Z,8.70
2018-03-26T21:00:40.509Z,9.65
2018-03-26T21:05:58.529Z,8.45
2018-03-26T21:08:26.761Z,8.93
2018-03-26T21:10:54.201Z,8.80
2018-03-26T21:13:21.760Z,9.50
2018-03-26T21:15:49.204Z,9.60
2018-03-26T21:18:16.650Z,9.25
2018-03-26T21:20:45.494Z,9.98
2018-03-26T21:23:12.936Z,9.45
2018-03-26T21:25:40.412Z,9.65
2018-03-26T21:28:07.845Z,10.13
2018-03-26T21:30:36.122Z,9.82
2018-03-26T21:33:05.054Z,10.35
2018-03-26T21:35:32.492Z,10.05
2018-03-26T21:37:59.936Z,9.27
2018-03-26T21:40:27.405Z,8.30
2018-03-26T21:42:54.842Z,9.02
2018-03-26T21:45:22.306Z,9.13
2018-03-26T21:47:49.746Z,8.23
2018-03-26T21:50:17.288Z,8.43
2018-03-26T21:52:44.726Z,8.70
2018-03-26T21:55:12.290Z,9.45
2018-03-26T21:57:40.497Z,9.90
2018-03-26T22:00:08.737Z,10.43
2018-03-26T22:02:41.897Z,10.50
2018-03-26T22:05:09.367Z,10.35
2018-03-26T22:07:36.801Z,10.55
2018-03-26T22:10:04.288Z,10.00
2018-03-26T22:12:31.733Z,10.18
2018-03-26T22:14:59.181Z,12.60
2018-03-26T22:17:26.837Z,13.80
2018-03-26T22:19:54.277Z,11.55
2018-03-26T22:22:21.718Z,11.27
2018-03-26T22:24:49.937Z,11.70
2018-03-26T22:27:17.393Z,11.07
2018-03-26T22:29:44.841Z,11.23
2018-03-26T22:32:12.386Z,10.88
2018-03-26T22:34:39.826Z,11.70
2018-03-26T22:37:07.313Z,11.30
2018-03-26T22:39:34.762Z,11.45
2018-03-26T22:42:02.229Z,11.90
2018-03-26T22:44:29.682Z,10.77
2018-03-26T22:46:57.234Z,11.98
2018-03-26T22:49:24.678Z,11.75
2018-03-26T22:51:52.161Z,11.20
2018-03-26T22:54:19.604Z,12.10
2018-03-26T22:56:50.781Z,12.35
2018-03-26T22:59:18.224Z,10.63
2018-03-26T23:01:45.720Z,11.55
2018-03-26T23:04:13.930Z,11.35
2018-03-26T23:06:41.413Z,12.65
2018-03-26T23:09:08.848Z,11.85
2018-03-26T23:11:36.303Z,10.85
2018-03-26T23:14:03.768Z,12.10
2018-03-26T23:16:31.216Z,10.90
2018-03-26T23:18:58.669Z,11.35
2018-03-26T23:21:26.200Z,11.52
2018-03-26T23:23:54.433Z,12.18
2018-03-26T23:26:21.878Z,11.80
2018-03-26T23:28:56.458Z,10.95
2018-03-26T23:31:24.659Z,12.05
2018-03-26T23:33:52.167Z,12.63
2018-03-26T23:36:19.633Z,10.93
2018-03-26T23:38:47.088Z,10.80
2018-03-26T23:41:14.538Z,10.93
2018-03-26T23:43:41.996Z,10.30
2018-03-26T23:46:09.441Z,11.02
2018-03-26T23:48:37.256Z,12.20
2018-03-26T23:51:05.471Z,12.65
2018-03-26T23:53:50.941Z,11.77
2018-03-26T23:56:18.386Z,11.85
2018-03-26T23:58:45.881Z,12.35
